sensor_id;sensor_type;location;lat;lon;timestamp;P1;durP1;ratioP1;P2;durP2;ratioP2
9924;SDS011;5001;51.674;7.868;2023-07-20T00:00:17;6.13;;;4.13;;
9924;SDS011;5001;51.674;7.868;2023-07-20T00:02:45;14.25;;;5.30;;
9924;SDS011;5001;51.674;7.868;2023-07-20T00:05:12;10.70;;;5.83;;
9924;SDS011;5001;51.674;7.868;2023-07-20T00:07:39;10.30;;;5.45;;
9924;SDS011;5001;51.674;7.868;2023-07-20T00:10:06;14.43;;;6.25;;
9924;SDS011;5001;51.674;7.868;2023-07-20T00:12:34;17.38;;;7.05;;
9924;SDS011;5001;51.674;7.868;2023-07-20T00:15:01;16.65;;;7.35;;
9924;SDS011;5001;51.674;7.868;2023-07-20T00:17:28;10.68;;;6.32;;
9924;SDS011;5001;51.674;7.868;2023-07-20T00:19:56;14.95;;;6.13;;
9924;SDS011;5001;51.674;7.868;2023-07-20T00:22:23;16.00;;;7.40;;
9924;SDS011;5001;51.674;7.868;2023-07-20T00:24:50;5.53;;;4.90;;
9924;SDS011;5001;51.674;7.868;2023-07-20T00:27:17;7.03;;;4.90;;
9924;SDS011;5001;51.674;7.868;2023-07-20T00:29:44;7.97;;;5.57;;
9924;SDS011;5001;51.674;7.868;2023-07-20T00:32:11;13.37;;;5.97;;
9924;SDS011;5001;51.674;7.868;2023-07-20T00:34:38;8.83;;;5.60;;
9924;SDS011;5001;51.674;7.868;2023-07-20T00:37:07;8.53;;;5.53;;
9924;SDS011;5001;51.674;7.868;2023-07-20T00:39:34;6.23;;;5.20;;
9924;SDS011;5001;51.674;7.868;2023-07-20T00:42:01;11.77;;;5.70;;
9924;SDS011;5001;51.674;7.868;2023-07-20T00:44:28;6.33;;;5.37;;
9924;SDS011;5001;51.674;7.868;2023-07-20T00:46:58;10.37;;;5.67;;
9924;SDS011;5001;51.674;7.868;2023-07-20T00:49:26;10.23;;;5.67;;
9924;SDS011;5001;51.674;7.868;2023-07-20T00:51:54;9.97;;;5.70;;
9924;SDS011;5001;51.674;7.868;2023-07-20T00:54:21;13.20;;;7.23;;
9924;SDS011;5001;51.674;7.868;2023-07-20T00:56:48;10.83;;;6.97;;
9924;SDS011;5001;51.674;7.868;2023-07-20T00:59:16;15.57;;;9.20;;
9924;SDS011;5001;51.674;7.868;2023-07-20T01:01:43;19.13;;;9.85;;
9924;SDS011;5001;51.674;7.868;2023-07-20T01:04:11;9.95;;;6.70;;
9924;SDS011;5001;51.674;7.868;2023-07-20T01:09:09;7.97;;;5.32;;
9924;SDS011;5001;51.674;7.868;2023-07-20T01:11:56;8.25;;;6.03;;
9924;SDS011;5001;51.674;7.868;2023-07-20T01:14:36;7.80;;;6.05;;
9924;SDS011;5001;51.674;7.868;2023-07-20T01:17:04;10.27;;;6.18;;
9924;SDS011;5001;51.674;7.868;2023-07-20T01:19:31;9.90;;;6.25;;
9924;SDS011;5001;51.674;7.868;2023-07-20T01:22:01;7.83;;;5.97;;
9924;SDS011;5001;51.674;7.868;2023-07-20T01:32:39;15.18;;;7.05;;
9924;SDS011;5001;51.674;7.868;2023-07-20T01:35:09;7.70;;;6.63;;
9924;SDS011;5001;51.674;7.868;2023-07-20T01:37:44;14.87;;;8.27;;
9924;SDS011;5001;51.674;7.868;2023-07-20T01:40:13;12.70;;;7.57;;
9924;SDS011;5001;51.674;7.868;2023-07-20T01:42:45;8.23;;;7.03;;
9924;SDS011;5001;51.674;7.868;2023-07-20T01:45:13;16.17;;;7.10;;
9924;SDS011;5001;51.674;7.868;2023-07-20T01:47:41;8.75;;;6.55;;
9924;SDS011;5001;51.674;7.868;2023-07-20T01:50:09;8.87;;;6.17;;
9924;SDS011;5001;51.674;7.868;2023-07-20T01:52:36;18.35;;;7.03;;
9924;SDS011;5001;51.674;7.868;2023-07-20T01:55:03;9.32;;;7.63;;
9924;SDS011;5001;51.674;7.868;2023-07-20T01:57:31;14.00;;;7.25;;
9924;SDS011;5001;51.674;7.868;2023-07-20T01:59:58;12.18;;;7.28;;
9924;SDS011;5001;51.674;7.868;2023-07-20T02:06:06;9.23;;;6.65;;
9924;SDS011;5001;51.674;7.868;2023-07-20T02:08:33;9.65;;;7.55;;
9924;SDS011;5001;51.674;7.868;2023-07-20T02:11:00;11.38;;;7.00;;
9924;SDS011;5001;51.674;7.868;2023-07-20T02:13:27;12.63;;;7.22;;
9924;SDS011;5001;51.674;7.868;2023-07-20T02:15:54;11.10;;;7.32;;
9924;SDS011;5001;51.674;7.868;2023-07-20T02:18:21;10.70;;;7.60;;
9924;SDS011;5001;51.674;7.868;2023-07-20T02:20:48;13.38;;;7.38;;
9924;SDS011;5001;51.674;7.868;2023-07-20T02:23:15;10.27;;;7.40;;
9924;SDS011;5001;51.674;7.868;2023-07-20T02:25:42;13.27;;;8.23;;
9924;SDS011;5001;51.674;7.868;2023-07-20T02:28:12;26.38;;;11.77;;
9924;SDS011;5001;51.674;7.868;2023-07-20T02:30:40;9.60;;;7.00;;
9924;SDS011;5001;51.674;7.868;2023-07-20T02:33:07;10.30;;;7.63;;
9924;SDS011;5001;51.674;7.868;2023-07-20T02:35:35;15.85;;;8.10;;
9924;SDS011;5001;51.674;7.868;2023-07-20T02:38:02;9.15;;;7.50;;
9924;SDS011;5001;51.674;7.868;2023-07-20T02:40:29;15.25;;;9.88;;
9924;SDS011;5001;51.674;7.868;2023-07-20T02:42:56;13.25;;;9.05;;
9924;SDS011;5001;51.674;7.868;2023-07-20T02:45:23;14.25;;;8.43;;
9924;SDS011;5001;51.674;7.868;2023-07-20T02:47:51;17.45;;;9.38;;
9924;SDS011;5001;51.674;7.868;2023-07-20T02:50:18;19.88;;;11.10;;
9924;SDS011;5001;51.674;7.868;2023-07-20T02:52:45;14.35;;;9.98;;
9924;SDS011;5001;51.674;7.868;2023-07-20T02:55:12;10.25;;;7.50;;
9924;SDS011;5001;51.674;7.868;2023-07-20T02:57:39;20.38;;;10.00;;
9924;SDS011;5001;51.674;7.868;2023-07-20T03:00:06;26.48;;;12.30;;
9924;SDS011;5001;51.674;7.868;2023-07-20T03:02:34;17.55;;;9.30;;
9924;SDS011;5001;51.674;7.868;2023-07-20T03:05:01;12.38;;;7.47;;
9924;SDS011;5001;51.674;7.868;2023-07-20T03:07:32;14.95;;;8.40;;
9924;SDS011;5001;51.674;7.868;2023-07-20T03:09:59;25.42;;;12.55;;
9924;SDS011;5001;51.674;7.868;2023-07-20T03:12:26;18.27;;;9.23;;
9924;SDS011;5001;51.674;7.868;2023-07-20T03:14:54;18.98;;;10.38;;
9924;SDS011;5001;51.674;7.868;2023-07-20T03:17:22;30.67;;;12.05;;
9924;SDS011;5001;51.674;7.868;2023-07-20T03:19:50;20.60;;;10.75;;
9924;SDS011;5001;51.674;7.868;2023-07-20T03:22:17;17.27;;;10.45;;
9924;SDS011;5001;51.674;7.868;2023-07-20T03:24:44;15.48;;;8.27;;
9924;SDS011;5001;51.674;7.868;2023-07-20T03:27:11;19.83;;;9.73;;
9924;SDS011;5001;51.674;7.868;2023-07-20T03:29:38;13.25;;;7.70;;
9924;SDS011;5001;51.674;7.868;2023-07-20T03:32:06;11.52;;;8.02;;
9924;SDS011;5001;51.674;7.868;2023-07-20T03:34:33;13.02;;;6.65;;
9924;SDS011;5001;51.674;7.868;2023-07-20T03:37:00;10.55;;;6.70;;
9924;SDS011;5001;51.674;7.868;2023-07-20T03:39:27;10.27;;;5.78;;
9924;SDS011;5001;51.674;7.868;2023-07-20T03:41:54;12.93;;;7.05;;
9924;SDS011;5001;51.674;7.868;2023-07-20T03:44:21;21.38;;;8.77;;
9924;SDS011;5001;51.674;7.868;2023-07-20T03:46:48;11.70;;;6.63;;
9924;SDS011;5001;51.674;7.868;2023-07-20T03:49:15;10.98;;;5.90;;
9924;SDS011;5001;51.674;7.868;2023-07-20T03:51:42;9.18;;;5.47;;
9924;SDS011;5001;51.674;7.868;2023-07-20T03:54:09;9.23;;;5.30;;
9924;SDS011;5001;51.674;7.868;2023-07-20T03:56:37;9.63;;;5.32;;
9924;SDS011;5001;51.674;7.868;2023-07-20T03:59:04;7.35;;;5.47;;
9924;SDS011;5001;51.674;7.868;2023-07-20T04:01:31;7.03;;;4.55;;
9924;SDS011;5001;51.674;7.868;2023-07-20T04:04:07;12.60;;;6.20;;
9924;SDS011;5001;51.674;7.868;2023-07-20T04:06:35;10.05;;;6.53;;
9924;SDS011;5001;51.674;7.868;2023-07-20T04:09:02;10.25;;;5.90;;
9924;SDS011;5001;51.674;7.868;2023-07-20T04:11:31;10.88;;;5.20;;
9924;SDS011;5001;51.674;7.868;2023-07-20T04:13:58;6.63;;;4.63;;
9924;SDS011;5001;51.674;7.868;2023-07-20T04:16:25;10.75;;;5.82;;
9924;SDS011;5001;51.674;7.868;2023-07-20T04:18:57;15.73;;;6.60;;
9924;SDS011;5001;51.674;7.868;2023-07-20T04:21:26;15.93;;;5.72;;
9924;SDS011;5001;51.674;7.868;2023-07-20T04:23:54;6.93;;;4.93;;
9924;SDS011;5001;51.674;7.868;2023-07-20T04:26:21;7.85;;;5.25;;
9924;SDS011;5001;51.674;7.868;2023-07-20T04:28:48;6.57;;;4.85;;
9924;SDS011;5001;51.674;7.868;2023-07-20T04:31:29;5.85;;;4.43;;
9924;SDS011;5001;51.674;7.868;2023-07-20T04:33:59;8.68;;;4.40;;
9924;SDS011;5001;51.674;7.868;2023-07-20T04:36:27;6.03;;;3.75;;
9924;SDS011;5001;51.674;7.868;2023-07-20T04:38:54;4.80;;;3.75;;
9924;SDS011;5001;51.674;7.868;2023-07-20T04:41:22;6.72;;;4.15;;
9924;SDS011;5001;51.674;7.868;2023-07-20T04:43:51;4.43;;;3.42;;
9924;SDS011;5001;51.674;7.868;2023-07-20T04:46:28;3.30;;;2.97;;
9924;SDS011;5001;51.674;7.868;2023-07-20T04:48:57;5.95;;;3.13;;
9924;SDS011;5001;51.674;7.868;2023-07-20T04:51:26;3.75;;;2.92;;
9924;SDS011;5001;51.674;7.868;2023-07-20T04:53:57;4.00;;;3.25;;
9924;SDS011;5001;51.674;7.868;2023-07-20T04:56:27;5.03;;;2.63;;
9924;SDS011;5001;51.674;7.868;2023-07-20T04:58:56;3.45;;;2.95;;
9924;SDS011;5001;51.674;7.868;2023-07-20T05:01:23;5.43;;;3.55;;
9924;SDS011;5001;51.674;7.868;2023-07-20T05:03:50;6.60;;;3.30;;
9924;SDS011;5001;51.674;7.868;2023-07-20T05:06:18;5.30;;;3.25;;
9924;SDS011;5001;51.674;7.868;2023-07-20T05:08:47;6.28;;;3.67;;
9924;SDS011;5001;51.674;7.868;2023-07-20T05:11:14;6.95;;;3.90;;
9924;SDS011;5001;51.674;7.868;2023-07-20T05:13:42;6.97;;;4.30;;
9924;SDS011;5001;51.674;7.868;2023-07-20T05:16:10;5.43;;;4.70;;
9924;SDS011;5001;51.674;7.868;2023-07-20T05:18:37;5.57;;;4.32;;
9924;SDS011;5001;51.674;7.868;2023-07-20T05:21:05;6.03;;;4.18;;
9924;SDS011;5001;51.674;7.868;2023-07-20T05:23:32;6.28;;;5.07;;
9924;SDS011;5001;51.674;7.868;2023-07-20T05:26:00;8.43;;;6.05;;
9924;SDS011;5001;51.674;7.868;2023-07-20T05:28:27;4.75;;;4.00;;
9924;SDS011;5001;51.674;7.868;2023-07-20T05:30:54;4.63;;;4.13;;
9924;SDS011;5001;51.674;7.868;2023-07-20T05:33:21;4.75;;;4.07;;
9924;SDS011;5001;51.674;7.868;2023-07-20T05:35:48;4.13;;;3.72;;
9924;SDS011;5001;51.674;7.868;2023-07-20T05:38:15;3.90;;;3.50;;
9924;SDS011;5001;51.674;7.868;2023-07-20T05:40:43;6.15;;;3.65;;
9924;SDS011;5001;51.674;7.868;2023-07-20T05:43:11;4.25;;;3.50;;
9924;SDS011;5001;51.674;7.868;2023-07-20T05:45:42;5.43;;;3.53;;
9924;SDS011;5001;51.674;7.868;2023-07-20T05:48:09;5.90;;;2.83;;
9924;SDS011;5001;51.674;7.868;2023-07-20T05:50:41;6.40;;;4.18;;
9924;SDS011;5001;51.674;7.868;2023-07-20T05:53:09;4.75;;;3.22;;
9924;SDS011;5001;51.674;7.868;2023-07-20T05:55:36;2.88;;;2.28;;
9924;SDS011;5001;51.674;7.868;2023-07-20T05:58:03;3.67;;;2.35;;
9924;SDS011;5001;51.674;7.868;2023-07-20T06:00:36;3.08;;;1.92;;
9924;SDS011;5001;51.674;7.868;2023-07-20T06:03:03;1.77;;;1.60;;
9924;SDS011;5001;51.674;7.868;2023-07-20T06:05:30;2.53;;;2.00;;
9924;SDS011;5001;51.674;7.868;2023-07-20T06:07:57;2.97;;;1.90;;
9924;SDS011;5001;51.674;7.868;2023-07-20T06:10:24;2.35;;;1.95;;
9924;SDS011;5001;51.674;7.868;2023-07-20T06:12:53;3.17;;;2.00;;
9924;SDS011;5001;51.674;7.868;2023-07-20T06:15:25;2.42;;;1.75;;
9924;SDS011;5001;51.674;7.868;2023-07-20T06:17:57;3.33;;;1.83;;
9924;SDS011;5001;51.674;7.868;2023-07-20T06:20:25;2.15;;;1.80;;
9924;SDS011;5001;51.674;7.868;2023-07-20T06:22:54;5.38;;;3.40;;
9924;SDS011;5001;51.674;7.868;2023-07-20T06:25:21;3.53;;;2.47;;
9924;SDS011;5001;51.674;7.868;2023-07-20T06:27:49;2.53;;;2.20;;
9924;SDS011;5001;51.674;7.868;2023-07-20T06:30:20;3.40;;;1.67;;
9924;SDS011;5001;51.674;7.868;2023-07-20T06:32:47;5.28;;;4.07;;
9924;SDS011;5001;51.674;7.868;2023-07-20T06:35:15;7.82;;;5.15;;
9924;SDS011;5001;51.674;7.868;2023-07-20T06:37:42;2.40;;;2.15;;
9924;SDS011;5001;51.674;7.868;2023-07-20T06:40:09;3.15;;;2.47;;
9924;SDS011;5001;51.674;7.868;2023-07-20T06:42:39;2.70;;;2.50;;
9924;SDS011;5001;51.674;7.868;2023-07-20T06:45:09;3.63;;;1.90;;
9924;SDS011;5001;51.674;7.868;2023-07-20T06:47:40;2.92;;;1.80;;
9924;SDS011;5001;51.674;7.868;2023-07-20T06:50:08;5.15;;;3.05;;
9924;SDS011;5001;51.674;7.868;2023-07-20T06:52:42;4.10;;;2.78;;
9924;SDS011;5001;51.674;7.868;2023-07-20T06:55:09;1.65;;;1.52;;
9924;SDS011;5001;51.674;7.868;2023-07-20T06:57:36;2.65;;;1.30;;
9924;SDS011;5001;51.674;7.868;2023-07-20T07:00:10;2.47;;;1.45;;
9924;SDS011;5001;51.674;7.868;2023-07-20T07:02:38;1.73;;;1.30;;
9924;SDS011;5001;51.674;7.868;2023-07-20T07:05:09;1.55;;;1.20;;
9924;SDS011;5001;51.674;7.868;2023-07-20T07:07:40;0.95;;;0.80;;
9924;SDS011;5001;51.674;7.868;2023-07-20T07:10:07;1.35;;;0.88;;
9924;SDS011;5001;51.674;7.868;2023-07-20T07:12:34;3.30;;;1.15;;
9924;SDS011;5001;51.674;7.868;2023-07-20T07:15:02;1.77;;;1.20;;
9924;SDS011;5001;51.674;7.868;2023-07-20T07:17:32;0.95;;;0.70;;
9924;SDS011;5001;51.674;7.868;2023-07-20T07:20:00;1.02;;;0.70;;
9924;SDS011;5001;51.674;7.868;2023-07-20T07:22:28;0.80;;;0.80;;
9924;SDS011;5001;51.674;7.868;2023-07-20T07:24:55;1.00;;;0.88;;
9924;SDS011;5001;51.674;7.868;2023-07-20T07:27:24;1.02;;;0.88;;
9924;SDS011;5001;51.674;7.868;2023-07-20T07:29:53;1.70;;;1.38;;
9924;SDS011;5001;51.674;7.868;2023-07-20T07:32:21;4.72;;;1.88;;
9924;SDS011;5001;51.674;7.868;2023-07-20T07:34:49;0.85;;;0.77;;
9924;SDS011;5001;51.674;7.868;2023-07-20T07:37:16;1.15;;;0.70;;
9924;SDS011;5001;51.674;7.868;2023-07-20T07:39:43;1.35;;;0.90;;
9924;SDS011;5001;51.674;7.868;2023-07-20T07:42:11;1.05;;;0.95;;
9924;SDS011;5001;51.674;7.868;2023-07-20T07:44:38;1.23;;;0.90;;
9924;SDS011;5001;51.674;7.868;2023-07-20T07:47:06;0.98;;;0.88;;
9924;SDS011;5001;51.674;7.868;2023-07-20T07:49:33;1.52;;;0.90;;
9924;SDS011;5001;51.674;7.868;2023-07-20T07:52:00;1.60;;;0.93;;
9924;SDS011;5001;51.674;7.868;2023-07-20T07:54:28;1.00;;;0.90;;
9924;SDS011;5001;51.674;7.868;2023-07-20T07:56:56;0.70;;;0.70;;
9924;SDS011;5001;51.674;7.868;2023-07-20T07:59:23;1.00;;;0.90;;
9924;SDS011;5001;51.674;7.868;2023-07-20T08:01:50;1.20;;;0.82;;
9924;SDS011;5001;51.674;7.868;2023-07-20T08:04:17;1.17;;;1.08;;
9924;SDS011;5001;51.674;7.868;2023-07-20T08:06:44;1.23;;;1.10;;
9924;SDS011;5001;51.674;7.868;2023-07-20T08:09:11;2.85;;;1.85;;
9924;SDS011;5001;51.674;7.868;2023-07-20T08:11:39;4.43;;;2.25;;
9924;SDS011;5001;51.674;7.868;2023-07-20T08:14:06;2.55;;;2.20;;
9924;SDS011;5001;51.674;7.868;2023-07-20T08:16:33;2.50;;;2.10;;
9924;SDS011;5001;51.674;7.868;2023-07-20T08:19:00;3.13;;;2.25;;
9924;SDS011;5001;51.674;7.868;2023-07-20T08:21:28;2.90;;;1.83;;
9924;SDS011;5001;51.674;7.868;2023-07-20T08:23:55;2.88;;;2.00;;
9924;SDS011;5001;51.674;7.868;2023-07-20T08:26:23;2.38;;;1.73;;
9924;SDS011;5001;51.674;7.868;2023-07-20T08:28:51;1.73;;;1.60;;
9924;SDS011;5001;51.674;7.868;2023-07-20T08:31:18;4.07;;;2.45;;
9924;SDS011;5001;51.674;7.868;2023-07-20T08:33:45;2.15;;;1.65;;
9924;SDS011;5001;51.674;7.868;2023-07-20T08:36:12;1.52;;;1.30;;
9924;SDS011;5001;51.674;7.868;2023-07-20T08:38:39;1.20;;;1.10;;
9924;SDS011;5001;51.674;7.868;2023-07-20T08:41:06;1.50;;;1.40;;
9924;SDS011;5001;51.674;7.868;2023-07-20T08:43:33;2.40;;;1.42;;
9924;SDS011;5001;51.674;7.868;2023-07-20T08:46:04;1.58;;;1.48;;
9924;SDS011;5001;51.674;7.868;2023-07-20T08:48:34;1.77;;;1.67;;
9924;SDS011;5001;51.674;7.868;2023-07-20T08:51:01;1.52;;;1.42;;
9924;SDS011;5001;51.674;7.868;2023-07-20T08:53:31;3.17;;;2.13;;
9924;SDS011;5001;51.674;7.868;2023-07-20T08:56:00;1.70;;;1.60;;
9924;SDS011;5001;51.674;7.868;2023-07-20T08:58:28;1.83;;;1.67;;
9924;SDS011;5001;51.674;7.868;2023-07-20T09:00:56;1.50;;;1.30;;
9924;SDS011;5001;51.674;7.868;2023-07-20T09:03:25;1.23;;;1.13;;
9924;SDS011;5001;51.674;7.868;2023-07-20T09:05:53;1.42;;;1.20;;
9924;SDS011;5001;51.674;7.868;2023-07-20T09:08:20;2.00;;;1.58;;
9924;SDS011;5001;51.674;7.868;2023-07-20T09:10:47;1.20;;;0.93;;
9924;SDS011;5001;51.674;7.868;2023-07-20T09:13:15;0.93;;;0.93;;
9924;SDS011;5001;51.674;7.868;2023-07-20T09:15:46;0.93;;;0.90;;
9924;SDS011;5001;51.674;7.868;2023-07-20T09:18:23;0.90;;;0.90;;
9924;SDS011;5001;51.674;7.868;2023-07-20T09:20:51;2.05;;;1.20;;
9924;SDS011;5001;51.674;7.868;2023-07-20T09:23:18;1.10;;;1.00;;
9924;SDS011;5001;51.674;7.868;2023-07-20T09:25:46;1.48;;;1.20;;
9924;SDS011;5001;51.674;7.868;2023-07-20T09:28:17;1.20;;;1.10;;
9924;SDS011;5001;51.674;7.868;2023-07-20T09:30:44;1.13;;;1.05;;
9924;SDS011;5001;51.674;7.868;2023-07-20T09:33:21;2.00;;;1.10;;
9924;SDS011;5001;51.674;7.868;2023-07-20T09:35:51;1.70;;;1.35;;
9924;SDS011;5001;51.674;7.868;2023-07-20T09:38:21;1.10;;;1.00;;
9924;SDS011;5001;51.674;7.868;2023-07-20T09:40:50;1.20;;;1.10;;
9924;SDS011;5001;51.674;7.868;2023-07-20T09:43:22;0.85;;;0.85;;
9924;SDS011;5001;51.674;7.868;2023-07-20T09:45:51;1.75;;;1.05;;
9924;SDS011;5001;51.674;7.868;2023-07-20T09:48:25;0.70;;;0.70;;
9924;SDS011;5001;51.674;7.868;2023-07-20T09:50:58;0.98;;;0.90;;
9924;SDS011;5001;51.674;7.868;2023-07-20T09:53:25;0.82;;;0.73;;
9924;SDS011;5001;51.674;7.868;2023-07-20T09:55:53;0.63;;;0.60;;
9924;SDS011;5001;51.674;7.868;2023-07-20T09:58:21;3.17;;;0.85;;
9924;SDS011;5001;51.674;7.868;2023-07-20T10:00:48;0.70;;;0.70;;
9924;SDS011;5001;51.674;7.868;2023-07-20T10:03:20;1.70;;;0.80;;
9924;SDS011;5001;51.674;7.868;2023-07-20T10:05:54;1.00;;;0.80;;
9924;SDS011;5001;51.674;7.868;2023-07-20T10:08:33;5.63;;;1.17;;
9924;SDS011;5001;51.674;7.868;2023-07-20T10:11:09;1.45;;;0.80;;
9924;SDS011;5001;51.674;7.868;2023-07-20T10:13:38;1.48;;;1.00;;
9924;SDS011;5001;51.674;7.868;2023-07-20T10:16:10;1.63;;;0.80;;
9924;SDS011;5001;51.674;7.868;2023-07-20T10:21:17;1.38;;;0.70;;
9924;SDS011;5001;51.674;7.868;2023-07-20T10:23:52;0.65;;;0.65;;
9924;SDS011;5001;51.674;7.868;2023-07-20T10:26:20;0.85;;;0.63;;
9924;SDS011;5001;51.674;7.868;2023-07-20T10:28:49;0.70;;;0.70;;
9924;SDS011;5001;51.674;7.868;2023-07-20T10:31:17;0.50;;;0.50;;
9924;SDS011;5001;51.674;7.868;2023-07-20T10:33:44;0.82;;;0.60;;
9924;SDS011;5001;51.674;7.868;2023-07-20T10:36:12;3.08;;;1.38;;
9924;SDS011;5001;51.674;7.868;2023-07-20T10:38:44;1.75;;;0.90;;
9924;SDS011;5001;51.674;7.868;2023-07-20T10:44:04;1.35;;;0.98;;
9924;SDS011;5001;51.674;7.868;2023-07-20T10:49:09;0.60;;;0.60;;
9924;SDS011;5001;51.674;7.868;2023-07-20T10:51:47;0.70;;;0.70;;
9924;SDS011;5001;51.674;7.868;2023-07-20T10:56:49;1.08;;;1.02;;
9924;SDS011;5001;51.674;7.868;2023-07-20T10:59:19;1.30;;;0.60;;
9924;SDS011;5001;51.674;7.868;2023-07-20T11:02:07;0.68;;;0.68;;
9924;SDS011;5001;51.674;7.868;2023-07-20T11:07:06;1.92;;;1.60;;
9924;SDS011;5001;51.674;7.868;2023-07-20T11:09:34;0.98;;;0.82;;
9924;SDS011;5001;51.674;7.868;2023-07-20T11:12:14;0.82;;;0.73;;
9924;SDS011;5001;51.674;7.868;2023-07-20T11:14:54;0.80;;;0.80;;
9924;SDS011;5001;51.674;7.868;2023-07-20T11:17:29;0.60;;;0.60;;
9924;SDS011;5001;51.674;7.868;2023-07-20T11:20:01;2.60;;;1.20;;
9924;SDS011;5001;51.674;7.868;2023-07-20T11:22:32;1.67;;;0.77;;
9924;SDS011;5001;51.674;7.868;2023-07-20T11:24:59;0.90;;;0.52;;
9924;SDS011;5001;51.674;7.868;2023-07-20T11:27:26;0.50;;;0.50;;
9924;SDS011;5001;51.674;7.868;2023-07-20T11:29:55;0.52;;;0.50;;
9924;SDS011;5001;51.674;7.868;2023-07-20T11:32:22;1.00;;;0.52;;
9924;SDS011;5001;51.674;7.868;2023-07-20T11:34:50;0.70;;;0.60;;
9924;SDS011;5001;51.674;7.868;2023-07-20T11:37:17;0.52;;;0.52;;
9924;SDS011;5001;51.674;7.868;2023-07-20T11:39:45;0.70;;;0.70;;
9924;SDS011;5001;51.674;7.868;2023-07-20T11:42:13;0.85;;;0.73;;
9924;SDS011;5001;51.674;7.868;2023-07-20T11:45:02;1.38;;;0.77;;
9924;SDS011;5001;51.674;7.868;2023-07-20T11:47:31;0.60;;;0.60;;
9924;SDS011;5001;51.674;7.868;2023-07-20T11:50:03;1.02;;;0.63;;
9924;SDS011;5001;51.674;7.868;2023-07-20T11:52:30;0.52;;;0.52;;
9924;SDS011;5001;51.674;7.868;2023-07-20T11:54:58;2.15;;;0.60;;
9924;SDS011;5001;51.674;7.868;2023-07-20T11:57:25;0.75;;;0.63;;
9924;SDS011;5001;51.674;7.868;2023-07-20T11:59:53;0.85;;;0.50;;
9924;SDS011;5001;51.674;7.868;2023-07-20T12:02:25;1.75;;;0.70;;
9924;SDS011;5001;51.674;7.868;2023-07-20T12:04:54;1.08;;;0.70;;
9924;SDS011;5001;51.674;7.868;2023-07-20T12:07:21;0.50;;;0.50;;
9924;SDS011;5001;51.674;7.868;2023-07-20T12:12:39;0.68;;;0.68;;
9924;SDS011;5001;51.674;7.868;2023-07-20T12:15:20;0.70;;;0.60;;
9924;SDS011;5001;51.674;7.868;2023-07-20T12:17:50;1.00;;;0.73;;
9924;SDS011;5001;51.674;7.868;2023-07-20T12:23:11;1.13;;;0.70;;
9924;SDS011;5001;51.674;7.868;2023-07-20T12:25:43;0.77;;;0.77;;
9924;SDS011;5001;51.674;7.868;2023-07-20T12:30:41;0.57;;;0.57;;
9924;SDS011;5001;51.674;7.868;2023-07-20T12:33:10;2.10;;;0.80;;
9924;SDS011;5001;51.674;7.868;2023-07-20T12:35:40;0.93;;;0.80;;
9924;SDS011;5001;51.674;7.868;2023-07-20T12:38:07;0.65;;;0.65;;
9924;SDS011;5001;51.674;7.868;2023-07-20T12:40:35;2.60;;;0.98;;
9924;SDS011;5001;51.674;7.868;2023-07-20T12:43:02;0.73;;;0.73;;
9924;SDS011;5001;51.674;7.868;2023-07-20T12:45:31;0.50;;;0.50;;
9924;SDS011;5001;51.674;7.868;2023-07-20T12:47:58;0.60;;;0.60;;
9924;SDS011;5001;51.674;7.868;2023-07-20T12:50:26;0.77;;;0.77;;
9924;SDS011;5001;51.674;7.868;2023-07-20T12:52:53;1.95;;;0.55;;
9924;SDS011;5001;51.674;7.868;2023-07-20T12:55:20;1.13;;;0.80;;
9924;SDS011;5001;51.674;7.868;2023-07-20T12:57:47;0.70;;;0.70;;
9924;SDS011;5001;51.674;7.868;2023-07-20T13:00:14;3.38;;;0.93;;
9924;SDS011;5001;51.674;7.868;2023-07-20T13:02:42;1.00;;;0.80;;
9924;SDS011;5001;51.674;7.868;2023-07-20T13:05:13;0.70;;;0.70;;
9924;SDS011;5001;51.674;7.868;2023-07-20T13:07:41;2.17;;;0.73;;
9924;SDS011;5001;51.674;7.868;2023-07-20T13:10:11;1.80;;;0.80;;
9924;SDS011;5001;51.674;7.868;2023-07-20T13:12:38;1.25;;;0.80;;
9924;SDS011;5001;51.674;7.868;2023-07-20T13:15:07;0.70;;;0.70;;
9924;SDS011;5001;51.674;7.868;2023-07-20T13:17:35;0.90;;;0.80;;
9924;SDS011;5001;51.674;7.868;2023-07-20T13:20:05;0.60;;;0.60;;
9924;SDS011;5001;51.674;7.868;2023-07-20T13:22:34;2.72;;;1.88;;
9924;SDS011;5001;51.674;7.868;2023-07-20T13:25:01;3.22;;;1.55;;
9924;SDS011;5001;51.674;7.868;2023-07-20T13:27:29;1.20;;;1.10;;
9924;SDS011;5001;51.674;7.868;2023-07-20T13:29:58;0.93;;;0.93;;
9924;SDS011;5001;51.674;7.868;2023-07-20T13:32:29;1.83;;;1.25;;
9924;SDS011;5001;51.674;7.868;2023-07-20T13:35:00;1.80;;;1.15;;
9924;SDS011;5001;51.674;7.868;2023-07-20T13:37:28;0.93;;;0.80;;
9924;SDS011;5001;51.674;7.868;2023-07-20T13:39:55;3.28;;;2.38;;
9924;SDS011;5001;51.674;7.868;2023-07-20T13:42:23;3.10;;;2.05;;
9924;SDS011;5001;51.674;7.868;2023-07-20T13:44:50;3.30;;;1.90;;
9924;SDS011;5001;51.674;7.868;2023-07-20T13:47:17;1.83;;;1.30;;
9924;SDS011;5001;51.674;7.868;2023-07-20T13:49:47;1.10;;;0.90;;
9924;SDS011;5001;51.674;7.868;2023-07-20T13:52:15;1.40;;;0.90;;
9924;SDS011;5001;51.674;7.868;2023-07-20T13:54:45;1.30;;;0.77;;
9924;SDS011;5001;51.674;7.868;2023-07-20T13:57:17;1.75;;;1.10;;
9924;SDS011;5001;51.674;7.868;2023-07-20T13:59:44;1.08;;;0.77;;
9924;SDS011;5001;51.674;7.868;2023-07-20T14:02:13;1.65;;;1.15;;
9924;SDS011;5001;51.674;7.868;2023-07-20T14:04:44;1.80;;;0.90;;
9924;SDS011;5001;51.674;7.868;2023-07-20T14:07:12;3.08;;;1.75;;
9924;SDS011;5001;51.674;7.868;2023-07-20T14:09:42;1.48;;;1.27;;
9924;SDS011;5001;51.674;7.868;2023-07-20T14:12:12;2.65;;;1.90;;
9924;SDS011;5001;51.674;7.868;2023-07-20T14:14:43;2.72;;;1.90;;
9924;SDS011;5001;51.674;7.868;2023-07-20T14:17:10;2.00;;;1.05;;
9924;SDS011;5001;51.674;7.868;2023-07-20T14:19:37;1.58;;;0.90;;
9924;SDS011;5001;51.674;7.868;2023-07-20T14:22:04;4.90;;;1.85;;
9924;SDS011;5001;51.674;7.868;2023-07-20T14:24:31;1.70;;;0.95;;
9924;SDS011;5001;51.674;7.868;2023-07-20T14:26:59;1.45;;;0.80;;
9924;SDS011;5001;51.674;7.868;2023-07-20T14:29:27;1.67;;;1.10;;
9924;SDS011;5001;51.674;7.868;2023-07-20T14:31:58;0.63;;;0.63;;
9924;SDS011;5001;51.674;7.868;2023-07-20T14:34:25;1.40;;;0.85;;
9924;SDS011;5001;51.674;7.868;2023-07-20T14:36:52;0.80;;;0.80;;
9924;SDS011;5001;51.674;7.868;2023-07-20T14:39:20;0.88;;;0.80;;
9924;SDS011;5001;51.674;7.868;2023-07-20T14:41:51;2.83;;;1.30;;
9924;SDS011;5001;51.674;7.868;2023-07-20T14:44:21;1.20;;;0.80;;
9924;SDS011;5001;51.674;7.868;2023-07-20T14:46:48;1.05;;;0.80;;
9924;SDS011;5001;51.674;7.868;2023-07-20T14:49:35;1.75;;;1.13;;
9924;SDS011;5001;51.674;7.868;2023-07-20T14:52:02;1.52;;;0.85;;
9924;SDS011;5001;51.674;7.868;2023-07-20T14:54:40;1.70;;;1.20;;
9924;SDS011;5001;51.674;7.868;2023-07-20T14:57:07;0.60;;;0.60;;
9924;SDS011;5001;51.674;7.868;2023-07-20T14:59:40;2.22;;;1.20;;
9924;SDS011;5001;51.674;7.868;2023-07-20T15:02:08;0.70;;;0.70;;
9924;SDS011;5001;51.674;7.868;2023-07-20T15:04:35;1.20;;;0.93;;
9924;SDS011;5001;51.674;7.868;2023-07-20T15:07:02;1.08;;;0.90;;
9924;SDS011;5001;51.674;7.868;2023-07-20T15:09:29;3.80;;;1.50;;
9924;SDS011;5001;51.674;7.868;2023-07-20T15:11:56;1.45;;;1.10;;
9924;SDS011;5001;51.674;7.868;2023-07-20T15:14:23;1.00;;;0.90;;
9924;SDS011;5001;51.674;7.868;2023-07-20T15:16:50;1.42;;;0.90;;
9924;SDS011;5001;51.674;7.868;2023-07-20T15:19:17;1.15;;;0.90;;
9924;SDS011;5001;51.674;7.868;2023-07-20T15:21:47;2.40;;;1.15;;
9924;SDS011;5001;51.674;7.868;2023-07-20T15:24:14;1.30;;;0.75;;
9924;SDS011;5001;51.674;7.868;2023-07-20T15:26:41;1.25;;;0.95;;
9924;SDS011;5001;51.674;7.868;2023-07-20T15:29:08;0.95;;;0.90;;
9924;SDS011;5001;51.674;7.868;2023-07-20T15:31:55;1.42;;;0.77;;
9924;SDS011;5001;51.674;7.868;2023-07-20T15:34:26;0.98;;;0.93;;
9924;SDS011;5001;51.674;7.868;2023-07-20T15:37:03;1.63;;;1.05;;
9924;SDS011;5001;51.674;7.868;2023-07-20T15:39:31;1.27;;;0.82;;
9924;SDS011;5001;51.674;7.868;2023-07-20T15:41:58;1.58;;;1.30;;
9924;SDS011;5001;51.674;7.868;2023-07-20T15:44:25;1.83;;;1.10;;
9924;SDS011;5001;51.674;7.868;2023-07-20T15:46:52;1.17;;;1.00;;
9924;SDS011;5001;51.674;7.868;2023-07-20T15:49:20;2.38;;;0.90;;
9924;SDS011;5001;51.674;7.868;2023-07-20T15:51:48;0.63;;;0.60;;
9924;SDS011;5001;51.674;7.868;2023-07-20T15:54:16;0.80;;;0.80;;
9924;SDS011;5001;51.674;7.868;2023-07-20T15:56:43;1.67;;;0.80;;